Time;durP1;ratioP1;P1;durP2;ratioP2;P2;SDS_P1;SDS_P2;PMS_P1;PMS_P2;Temp;Humidity;BMP_temperature;BMP_pressure;BME280_temperature;BME280_humidity;BME280_pressure;Samples;Min_cycle;Max_cycle;Signal;HPM_P1;HPM_P2
2022/05/27 00:01:33;;;;;;;1.23;1.10;;;;;;;;;;5099237;28;20568;-68
2022/05/27 00:04:01;;;;;;;3.13;1.40;;;;;;;;;;5099071;28;20263;-68
2022/05/27 00:06:30;;;;;;;1.60;1.37;;;;;;;;;;5099389;28;20324;-68
2022/05/27 00:08:59;;;;;;;3.20;1.53;;;;;;;;;;5099290;28;20240;-68
2022/05/27 00:11:27;;;;;;;2.00;1.10;;;;;;;;;;5099500;28;20236;-68
2022/05/27 00:13:55;;;;;;;1.60;1.23;;;;;;;;;;5099010;28;20514;-68
2022/05/27 00:16:23;;;;;;;1.23;1.13;;;;;;;;;;5099090;28;20290;-68
2022/05/27 00:18:52;;;;;;;1.70;1.60;;;;;;;;;;5098734;28;20256;-68
2022/05/27 00:21:19;;;;;;;2.60;1.33;;;;;;;;;;5099183;28;20239;-68
2022/05/27 00:23:48;;;;;;;2.30;1.40;;;;;;;;;;5098600;28;20205;-68
2022/05/27 00:26:17;;;;;;;2.07;1.47;;;;;;;;;;5098957;28;20233;-68
2022/05/27 00:28:45;;;;;;;2.30;1.40;;;;;;;;;;5098646;28;20239;-68
2022/05/27 00:31:13;;;;;;;3.53;1.57;;;;;;;;;;5098817;28;20232;-68
2022/05/27 00:33:41;;;;;;;2.40;1.07;;;;;;;;;;5098464;28;20668;-68
2022/05/27 00:36:10;;;;;;;2.37;1.53;;;;;;;;;;5098812;28;20275;-68
2022/05/27 00:38:38;;;;;;;3.57;1.50;;;;;;;;;;5098262;28;20221;-68
2022/05/27 00:41:06;;;;;;;1.30;1.20;;;;;;;;;;5098882;28;20236;-68
2022/05/27 00:43:36;;;;;;;1.20;1.10;;;;;;;;;;5098874;28;20237;-68
2022/05/27 00:46:05;;;;;;;2.30;1.30;;;;;;;;;;5098482;28;20225;-68
2022/05/27 00:48:34;;;;;;;1.73;1.23;;;;;;;;;;5097810;28;20716;-68
2022/05/27 00:51:02;;;;;;;1.63;1.10;;;;;;;;;;5098299;28;20254;-68
2022/05/27 00:53:34;;;;;;;1.27;1.17;;;;;;;;;;5097498;28;20227;-68
2022/05/27 00:56:04;;;;;;;2.20;1.10;;;;;;;;;;5098249;28;20837;-68
2022/05/27 00:58:34;;;;;;;1.30;1.10;;;;;;;;;;5098143;28;20734;-68
2022/05/27 01:01:03;;;;;;;4.00;1.30;;;;;;;;;;5098257;28;20699;-68
2022/05/27 01:03:32;;;;;;;3.43;1.23;;;;;;;;;;5098012;28;20246;-68
2022/05/27 01:06:00;;;;;;;3.37;1.20;;;;;;;;;;5098135;28;20236;-68
2022/05/27 01:08:29;;;;;;;2.27;1.60;;;;;;;;;;5098031;28;20206;-68
2022/05/27 01:11:12;;;;;;;1.53;1.43;;;;;;;;;;5098309;28;20205;-68
2022/05/27 01:13:43;;;;;;;2.37;1.40;;;;;;;;;;5098247;28;20295;-68
2022/05/27 01:16:20;;;;;;;1.43;1.30;;;;;;;;;;5098026;28;20248;-68
2022/05/27 01:21:50;;;;;;;3.87;1.60;;;;;;;;;;5098222;28;20205;-67
2022/05/27 01:24:36;;;;;;;2.47;2.27;;;;;;;;;;5097710;28;20201;-67
2022/05/27 01:27:27;;;;;;;1.87;1.13;;;;;;;;;;5095450;28;20218;-68
2022/05/27 01:30:16;;;;;;;3.50;1.13;;;;;;;;;;5082404;28;20205;-70
2022/05/27 01:32:53;;;;;;;1.33;1.23;;;;;;;;;;5083333;28;20259;-69
2022/05/27 01:35:26;;;;;;;1.70;1.40;;;;;;;;;;5097861;28;20225;-69
2022/05/27 01:37:56;;;;;;;2.33;1.30;;;;;;;;;;5097756;28;20232;-69
2022/05/27 01:40:28;;;;;;;3.43;1.20;;;;;;;;;;5084684;28;20590;-69
2022/05/27 01:42:59;;;;;;;1.67;1.43;;;;;;;;;;5097796;28;20205;-69
2022/05/27 01:45:29;;;;;;;3.70;1.40;;;;;;;;;;5097542;28;20235;-69
2022/05/27 01:48:01;;;;;;;1.97;1.20;;;;;;;;;;5097214;28;20261;-69
2022/05/27 01:50:34;;;;;;;2.20;1.37;;;;;;;;;;5097416;28;20683;-69
2022/05/27 01:53:05;;;;;;;2.20;1.40;;;;;;;;;;5097586;28;20198;-70
2022/05/27 01:55:35;;;;;;;1.30;1.17;;;;;;;;;;5097519;28;20261;-69
2022/05/27 01:58:06;;;;;;;2.33;1.47;;;;;;;;;;5097692;28;20263;-69
2022/05/27 02:00:35;;;;;;;1.70;1.30;;;;;;;;;;5088649;28;20369;-69
2022/05/27 02:03:07;;;;;;;2.40;1.37;;;;;;;;;;5089786;28;20673;-69
2022/05/27 02:05:39;;;;;;;2.37;1.37;;;;;;;;;;5099975;28;20316;-69
2022/05/27 02:08:10;;;;;;;2.37;1.43;;;;;;;;;;5100337;28;20205;-69
2022/05/27 02:10:40;;;;;;;2.60;1.10;;;;;;;;;;5101251;28;20553;-70
2022/05/27 02:13:10;;;;;;;1.83;1.40;;;;;;;;;;5101660;28;20642;-69
2022/05/27 02:15:39;;;;;;;1.87;1.27;;;;;;;;;;5101494;28;20264;-69
2022/05/27 02:18:13;;;;;;;2.33;1.20;;;;;;;;;;5099622;28;20665;-69
2022/05/27 02:20:43;;;;;;;1.40;1.30;;;;;;;;;;5101537;28;20205;-69
2022/05/27 02:23:17;;;;;;;1.50;1.17;;;;;;;;;;5087942;28;20257;-69
2022/05/27 02:25:46;;;;;;;1.53;1.23;;;;;;;;;;5101037;28;20260;-69
2022/05/27 02:28:17;;;;;;;2.00;1.30;;;;;;;;;;5101308;28;20209;-69
2022/05/27 02:30:46;;;;;;;2.03;1.30;;;;;;;;;;5101362;28;20206;-70
2022/05/27 02:36:04;;;;;;;2.77;1.33;;;;;;;;;;5100934;28;20222;-69
2022/05/27 02:38:33;;;;;;;2.17;1.30;;;;;;;;;;5100978;28;20261;-68
2022/05/27 02:41:04;;;;;;;1.47;1.33;;;;;;;;;;5101014;28;20729;-69
2022/05/27 02:43:39;;;;;;;1.17;1.17;;;;;;;;;;5101210;28;20291;-69
2022/05/27 02:46:13;;;;;;;1.73;1.13;;;;;;;;;;5100865;28;20260;-69
2022/05/27 02:48:44;;;;;;;4.60;1.67;;;;;;;;;;5100270;28;20720;-70
2022/05/27 02:51:17;;;;;;;4.30;1.53;;;;;;;;;;5101176;28;20205;-69
2022/05/27 02:53:46;;;;;;;3.00;1.63;;;;;;;;;;5100586;28;20201;-70
2022/05/27 02:56:16;;;;;;;6.13;1.40;;;;;;;;;;5100937;28;20257;-69
2022/05/27 02:58:44;;;;;;;2.60;1.50;;;;;;;;;;5100470;28;20225;-70
2022/05/27 03:01:12;;;;;;;4.57;1.70;;;;;;;;;;5100330;28;20312;-69
2022/05/27 03:03:40;;;;;;;3.23;1.20;;;;;;;;;;5100365;28;20271;-69
2022/05/27 03:06:32;;;;;;;2.27;1.33;;;;;;;;;;5100239;28;20264;-69
2022/05/27 03:09:05;;;;;;;4.27;1.90;;;;;;;;;;5085201;28;20241;-69
2022/05/27 03:11:42;;;;;;;1.33;1.10;;;;;;;;;;5100600;28;20213;-69
2022/05/27 03:14:19;;;;;;;1.50;1.10;;;;;;;;;;5100688;28;20245;-70
2022/05/27 03:16:54;;;;;;;3.97;1.50;;;;;;;;;;5099831;28;20259;-69
2022/05/27 03:19:31;;;;;;;1.80;1.30;;;;;;;;;;5100519;28;20220;-69
2022/05/27 03:22:04;;;;;;;2.53;1.40;;;;;;;;;;5100715;28;20209;-70
2022/05/27 03:24:38;;;;;;;2.20;1.30;;;;;;;;;;5100237;28;20267;-69
2022/05/27 03:27:13;;;;;;;1.20;1.10;;;;;;;;;;5100060;28;20661;-69
2022/05/27 03:29:45;;;;;;;3.57;1.30;;;;;;;;;;5100132;28;20656;-70
2022/05/27 03:32:18;;;;;;;3.13;1.30;;;;;;;;;;5099993;28;20213;-70
2022/05/27 03:34:50;;;;;;;2.13;1.20;;;;;;;;;;5100347;28;20237;-69
2022/05/27 03:37:22;;;;;;;1.57;1.20;;;;;;;;;;5100348;28;20228;-69
2022/05/27 03:39:54;;;;;;;2.60;2.40;;;;;;;;;;5100237;28;20260;-70
2022/05/27 03:42:24;;;;;;;1.30;1.20;;;;;;;;;;5099798;28;20569;-70
2022/05/27 03:44:56;;;;;;;1.30;1.00;;;;;;;;;;5099742;28;20212;-69
2022/05/27 03:47:25;;;;;;;1.70;1.43;;;;;;;;;;5099106;28;20229;-70
2022/05/27 03:49:53;;;;;;;2.10;1.40;;;;;;;;;;5099728;28;20297;-70
2022/05/27 03:52:22;;;;;;;1.10;1.00;;;;;;;;;;5100048;28;20209;-69
2022/05/27 03:54:52;;;;;;;1.50;1.17;;;;;;;;;;5086150;28;20206;-69
2022/05/27 03:57:21;;;;;;;3.20;1.30;;;;;;;;;;5099472;28;20304;-69
2022/05/27 03:59:49;;;;;;;4.40;1.87;;;;;;;;;;5099436;28;20229;-69
2022/05/27 04:02:17;;;;;;;2.73;1.23;;;;;;;;;;5099226;28;20266;-69
2022/05/27 04:04:45;;;;;;;2.40;1.20;;;;;;;;;;5099559;28;20244;-69
2022/05/27 04:07:13;;;;;;;2.20;1.20;;;;;;;;;;5099388;28;20279;-69
2022/05/27 04:09:41;;;;;;;2.53;1.13;;;;;;;;;;5099214;28;20206;-70
2022/05/27 04:12:11;;;;;;;1.27;1.17;;;;;;;;;;5099424;28;20209;-69
2022/05/27 04:14:39;;;;;;;4.40;1.60;;;;;;;;;;5099448;28;20209;-69
2022/05/27 04:19:52;;;;;;;3.20;1.20;;;;;;;;;;5099178;28;20236;-69
2022/05/27 04:22:20;;;;;;;2.50;1.27;;;;;;;;;;5099079;28;20715;-70
2022/05/27 04:24:48;;;;;;;2.30;1.00;;;;;;;;;;5098929;28;20244;-69
2022/05/27 04:27:18;;;;;;;1.10;1.07;;;;;;;;;;5098663;28;20236;-69
2022/05/27 04:29:47;;;;;;;8.43;4.17;;;;;;;;;;5098212;28;20201;-69
2022/05/27 04:32:15;;;;;;;3.37;1.50;;;;;;;;;;5098717;28;20213;-69
2022/05/27 04:34:43;;;;;;;1.50;1.27;;;;;;;;;;5099027;28;20209;-71
2022/05/27 04:37:12;;;;;;;3.37;1.33;;;;;;;;;;5098983;28;20236;-72
2022/05/27 04:39:40;;;;;;;3.10;0.93;;;;;;;;;;5098736;28;20240;-74
2022/05/27 04:42:09;;;;;;;4.20;1.20;;;;;;;;;;5098698;28;20212;-74
2022/05/27 04:44:38;;;;;;;3.93;1.20;;;;;;;;;;5098754;28;20205;-74
2022/05/27 04:47:07;;;;;;;1.30;1.20;;;;;;;;;;5098385;28;20265;-75
2022/05/27 04:49:54;;;;;;;5.67;2.63;;;;;;;;;;5098420;28;20734;-74
2022/05/27 04:52:24;;;;;;;1.80;1.40;;;;;;;;;;5098298;28;20245;-74
2022/05/27 04:54:52;;;;;;;1.23;1.17;;;;;;;;;;5097503;28;20236;-75
2022/05/27 04:57:22;;;;;;;4.83;1.30;;;;;;;;;;5095409;28;20259;-75
2022/05/27 04:59:51;;;;;;;2.37;1.20;;;;;;;;;;5098459;28;20217;-74
2022/05/27 05:02:21;;;;;;;1.53;1.20;;;;;;;;;;5094677;28;20265;-75
2022/05/27 05:04:49;;;;;;;2.83;1.47;;;;;;;;;;5098688;28;20198;-75
2022/05/27 05:07:20;;;;;;;5.13;1.20;;;;;;;;;;5098854;28;20282;-75
2022/05/27 05:09:48;;;;;;;2.87;1.23;;;;;;;;;;5097565;28;20207;-75
2022/05/27 05:12:22;;;;;;;2.97;1.00;;;;;;;;;;5099522;28;20224;-75
2022/05/27 05:14:52;;;;;;;4.63;1.33;;;;;;;;;;5100489;28;20201;-75
2022/05/27 05:17:21;;;;;;;1.77;1.30;;;;;;;;;;5098578;28;20570;-74
2022/05/27 05:19:53;;;;;;;3.33;1.33;;;;;;;;;;5099194;28;20338;-75
2022/05/27 05:22:22;;;;;;;1.97;1.20;;;;;;;;;;5095674;28;20209;-74
2022/05/27 05:24:53;;;;;;;2.37;1.07;;;;;;;;;;5095556;28;20572;-75
2022/05/27 05:27:22;;;;;;;1.60;1.20;;;;;;;;;;5094383;28;20584;-74
2022/05/27 05:29:52;;;;;;;2.10;1.13;;;;;;;;;;5106250;28;20229;-74
2022/05/27 05:32:20;;;;;;;5.13;1.93;;;;;;;;;;5111562;28;20240;-74
2022/05/27 05:34:52;;;;;;;1.60;1.50;;;;;;;;;;5102275;28;20232;-74
2022/05/27 05:37:21;;;;;;;2.47;1.10;;;;;;;;;;5097550;28;20346;-73
2022/05/27 05:39:49;;;;;;;0.93;0.83;;;;;;;;;;5107786;28;20205;-73
2022/05/27 05:42:17;;;;;;;3.80;1.47;;;;;;;;;;5117966;28;20638;-75
2022/05/27 05:44:46;;;;;;;2.57;1.20;;;;;;;;;;5110157;28;20209;-74
2022/05/27 05:47:15;;;;;;;2.80;1.57;;;;;;;;;;5096902;28;20704;-74
2022/05/27 05:49:44;;;;;;;4.17;0.97;;;;;;;;;;5097709;28;20212;-74
2022/05/27 05:52:12;;;;;;;1.33;1.00;;;;;;;;;;5103583;28;20232;-74
2022/05/27 05:54:40;;;;;;;3.33;1.03;;;;;;;;;;5098815;28;20244;-74
2022/05/27 05:57:09;;;;;;;2.67;1.40;;;;;;;;;;5097524;28;20264;-74
2022/05/27 05:59:38;;;;;;;3.30;1.00;;;;;;;;;;5097487;28;20232;-74
2022/05/27 06:02:07;;;;;;;3.80;1.10;;;;;;;;;;5097485;28;20268;-74
2022/05/27 06:04:36;;;;;;;4.17;1.37;;;;;;;;;;5097359;28;20212;-74
2022/05/27 06:07:11;;;;;;;4.10;1.10;;;;;;;;;;5097217;28;20659;-75
2022/05/27 06:09:40;;;;;;;1.70;1.60;;;;;;;;;;5094361;28;20229;-74
2022/05/27 06:12:08;;;;;;;1.83;1.30;;;;;;;;;;5094965;28;20544;-74
2022/05/27 06:14:37;;;;;;;1.30;0.87;;;;;;;;;;5095760;28;20665;-74
2022/05/27 06:17:05;;;;;;;2.03;1.43;;;;;;;;;;5094741;28;20276;-76
2022/05/27 06:19:33;;;;;;;2.53;1.00;;;;;;;;;;5096209;28;20725;-76
2022/05/27 06:22:02;;;;;;;3.03;1.33;;;;;;;;;;5108507;28;20220;-76
2022/05/27 06:24:31;;;;;;;4.07;1.30;;;;;;;;;;5096948;28;20252;-76
2022/05/27 06:26:59;;;;;;;3.80;1.27;;;;;;;;;;5096757;28;20221;-72
2022/05/27 06:34:58;;;;;;;2.10;1.20;;;;;;;;;;5096930;28;20209;-72
2022/05/27 06:37:28;;;;;;;1.40;1.30;;;;;;;;;;5096936;28;20230;-71
2022/05/27 06:39:58;;;;;;;1.40;1.30;;;;;;;;;;5096012;28;20205;-72
2022/05/27 06:42:27;;;;;;;5.40;1.70;;;;;;;;;;5095234;28;20261;-72
2022/05/27 06:45:05;;;;;;;2.50;1.40;;;;;;;;;;5095138;28;20208;-72
2022/05/27 06:47:33;;;;;;;1.53;1.30;;;;;;;;;;5094592;28;20269;-72
2022/05/27 06:50:01;;;;;;;2.17;1.40;;;;;;;;;;5094871;28;20213;-72
2022/05/27 06:52:30;;;;;;;1.60;1.50;;;;;;;;;;5097126;28;20634;-71
2022/05/27 06:54:58;;;;;;;3.10;1.37;;;;;;;;;;5098966;28;20615;-71
2022/05/27 06:57:28;;;;;;;0.93;0.90;;;;;;;;;;5100181;28;20225;-72
2022/05/27 06:59:56;;;;;;;1.63;1.30;;;;;;;;;;5100743;28;20205;-72
2022/05/27 07:02:24;;;;;;;5.43;1.40;;;;;;;;;;5099904;28;20641;-71
2022/05/27 07:04:53;;;;;;;2.40;0.93;;;;;;;;;;5100708;28;20228;-73
2022/05/27 07:07:22;;;;;;;5.73;1.30;;;;;;;;;;5100162;28;20647;-72
2022/05/27 07:09:52;;;;;;;1.10;1.00;;;;;;;;;;5100406;28;20229;-73
2022/05/27 07:12:20;;;;;;;2.50;1.13;;;;;;;;;;5100707;28;20208;-73
2022/05/27 07:14:48;;;;;;;2.17;1.10;;;;;;;;;;5100282;28;20256;-72
2022/05/27 07:17:16;;;;;;;1.97;0.90;;;;;;;;;;5099725;28;20271;-73
2022/05/27 07:19:44;;;;;;;1.80;0.80;;;;;;;;;;5100180;28;20575;-73
2022/05/27 07:22:12;;;;;;;1.30;0.93;;;;;;;;;;5096256;28;20217;-73
2022/05/27 07:24:41;;;;;;;1.70;1.13;;;;;;;;;;5120441;28;20262;-73
2022/05/27 07:27:11;;;;;;;4.13;1.10;;;;;;;;;;5120487;28;20252;-73
2022/05/27 07:29:39;;;;;;;2.70;1.00;;;;;;;;;;5120472;28;20208;-73
2022/05/27 07:32:07;;;;;;;2.83;1.47;;;;;;;;;;5119995;28;20204;-73
2022/05/27 07:34:35;;;;;;;1.20;1.10;;;;;;;;;;5120076;28;20208;-73
2022/05/27 07:37:03;;;;;;;2.17;1.40;;;;;;;;;;5120110;28;20274;-73
2022/05/27 07:39:31;;;;;;;2.60;1.13;;;;;;;;;;5120148;28;20200;-73
2022/05/27 07:42:01;;;;;;;2.27;1.53;;;;;;;;;;5109948;28;20255;-73
2022/05/27 07:44:30;;;;;;;4.60;1.77;;;;;;;;;;5099527;28;20611;-72
2022/05/27 07:46:58;;;;;;;22.37;2.37;;;;;;;;;;5099120;28;20253;-73
2022/05/27 07:49:26;;;;;;;7.17;1.40;;;;;;;;;;5099353;28;20300;-72
2022/05/27 07:52:00;;;;;;;2.53;0.97;;;;;;;;;;5099544;28;20251;-73
2022/05/27 07:54:28;;;;;;;2.17;1.20;;;;;;;;;;5088204;28;20734;-72
2022/05/27 07:56:57;;;;;;;2.60;1.47;;;;;;;;;;5100818;28;20240;-71
2022/05/27 07:59:25;;;;;;;1.27;0.90;;;;;;;;;;5099712;28;20221;-73
2022/05/27 08:01:54;;;;;;;3.87;1.20;;;;;;;;;;5098876;28;20706;-73
2022/05/27 08:04:22;;;;;;;1.37;1.27;;;;;;;;;;5094439;28;20636;-73
2022/05/27 08:06:51;;;;;;;1.40;1.20;;;;;;;;;;5119561;28;20232;-73
2022/05/27 08:09:19;;;;;;;1.23;0.90;;;;;;;;;;5119825;28;20208;-73
2022/05/27 08:11:47;;;;;;;0.90;0.90;;;;;;;;;;5119725;28;20231;-72
2022/05/27 08:14:15;;;;;;;1.87;1.10;;;;;;;;;;5119370;28;20219;-70
2022/05/27 08:16:43;;;;;;;3.70;1.13;;;;;;;;;;5109974;28;20222;-69
2022/05/27 08:19:12;;;;;;;0.93;0.80;;;;;;;;;;5098949;28;20297;-70
2022/05/27 08:21:40;;;;;;;0.87;0.87;;;;;;;;;;5098876;28;20221;-69
2022/05/27 08:24:09;;;;;;;1.83;0.97;;;;;;;;;;5098521;28;20201;-70
2022/05/27 08:26:38;;;;;;;2.43;0.67;;;;;;;;;;5098660;28;20238;-70
2022/05/27 08:29:06;;;;;;;0.50;0.50;;;;;;;;;;5098956;28;20210;-71
2022/05/27 08:31:35;;;;;;;1.93;1.20;;;;;;;;;;5098596;28;20201;-73
2022/05/27 08:39:34;;;;;;;0.83;0.83;;;;;;;;;;5067988;28;20248;-74
2022/05/27 08:42:14;;;;;;;1.50;0.60;;;;;;;;;;5098729;28;20257;-74
2022/05/27 08:44:47;;;;;;;1.97;0.90;;;;;;;;;;5098412;28;20307;-74
2022/05/27 08:47:20;;;;;;;0.90;0.80;;;;;;;;;;5097858;28;20226;-73
2022/05/27 08:49:49;;;;;;;1.17;1.03;;;;;;;;;;5098459;28;20239;-74
2022/05/27 08:52:22;;;;;;;1.27;0.97;;;;;;;;;;5098481;28;20229;-72
2022/05/27 08:54:52;;;;;;;2.73;1.23;;;;;;;;;;5097919;28;20267;-73
2022/05/27 09:00:14;;;;;;;2.00;0.70;;;;;;;;;;5097880;28;20810;-74
2022/05/27 09:02:45;;;;;;;2.50;0.90;;;;;;;;;;5101193;28;20707;-74
2022/05/27 09:05:17;;;;;;;1.60;0.70;;;;;;;;;;5118611;28;20204;-73
2022/05/27 09:07:50;;;;;;;1.47;0.80;;;;;;;;;;5118464;28;20238;-72
2022/05/27 09:10:20;;;;;;;1.30;1.20;;;;;;;;;;5118139;28;20209;-73
2022/05/27 09:13:00;;;;;;;1.07;0.73;;;;;;;;;;5118315;27;20266;-71
2022/05/27 09:15:33;;;;;;;1.50;1.40;;;;;;;;;;5117559;28;20248;-72
2022/05/27 09:18:06;;;;;;;0.67;0.60;;;;;;;;;;5097781;28;20210;-72
2022/05/27 09:20:51;;;;;;;1.83;0.93;;;;;;;;;;5097616;28;20201;-72
2022/05/27 09:23:37;;;;;;;0.83;0.50;;;;;;;;;;5098008;28;20233;-72
2022/05/27 09:26:10;;;;;;;1.30;1.20;;;;;;;;;;5098103;28;20229;-72
2022/05/27 09:28:43;;;;;;;0.87;0.83;;;;;;;;;;5097962;28;20231;-72
2022/05/27 09:31:14;;;;;;;0.63;0.63;;;;;;;;;;5098075;28;20233;-72
2022/05/27 09:33:43;;;;;;;0.73;0.60;;;;;;;;;;5097736;28;20653;-73
2022/05/27 09:36:14;;;;;;;1.47;0.93;;;;;;;;;;5097829;28;20221;-71
2022/05/27 09:38:47;;;;;;;1.60;0.90;;;;;;;;;;5097490;28;20210;-71
2022/05/27 09:41:23;;;;;;;2.10;0.80;;;;;;;;;;5097801;28;20206;-72
2022/05/27 09:43:55;;;;;;;0.97;0.87;;;;;;;;;;5097936;28;20233;-71
2022/05/27 09:46:26;;;;;;;1.17;1.10;;;;;;;;;;5097513;28;20255;-74
2022/05/27 09:48:56;;;;;;;2.97;0.80;;;;;;;;;;5096972;28;20236;-74
2022/05/27 09:51:25;;;;;;;0.90;0.90;;;;;;;;;;5097352;28;20205;-74
2022/05/27 09:53:54;;;;;;;1.13;0.60;;;;;;;;;;5094086;28;20207;-74
2022/05/27 09:56:36;;;;;;;0.90;0.90;;;;;;;;;;5097688;28;20260;-74
2022/05/27 09:59:21;;;;;;;0.63;0.63;;;;;;;;;;5097651;28;20212;-75
2022/05/27 10:01:49;;;;;;;0.93;0.83;;;;;;;;;;5097396;28;20209;-76
2022/05/27 10:04:17;;;;;;;1.20;1.10;;;;;;;;;;5107947;28;20203;-73
2022/05/27 10:06:46;;;;;;;1.20;1.10;;;;;;;;;;5117549;28;20297;-74
2022/05/27 10:09:26;;;;;;;1.67;1.00;;;;;;;;;;5097896;28;20662;-74
2022/05/27 10:11:56;;;;;;;2.73;0.77;;;;;;;;;;5095624;28;20545;-74
2022/05/27 10:14:27;;;;;;;1.07;0.97;;;;;;;;;;5093179;28;20208;-74
2022/05/27 10:17:00;;;;;;;0.77;0.70;;;;;;;;;;5096390;28;20574;-72
2022/05/27 10:19:28;;;;;;;1.80;0.80;;;;;;;;;;5096651;28;20246;-75
2022/05/27 10:21:58;;;;;;;0.80;0.80;;;;;;;;;;5117741;28;20242;-75
2022/05/27 10:24:27;;;;;;;0.70;0.70;;;;;;;;;;5117359;28;20667;-73
2022/05/27 10:27:04;;;;;;;2.67;0.93;;;;;;;;;;5120505;28;20232;-74
2022/05/27 10:29:33;;;;;;;0.50;0.50;;;;;;;;;;5121835;27;20201;-74
2022/05/27 10:32:02;;;;;;;1.33;0.90;;;;;;;;;;5108813;28;20201;-74
2022/05/27 10:34:40;;;;;;;1.17;0.83;;;;;;;;;;5101182;28;20209;-75
2022/05/27 10:37:12;;;;;;;1.37;0.97;;;;;;;;;;5097265;28;20684;-77
2022/05/27 10:39:43;;;;;;;1.87;0.70;;;;;;;;;;5100580;28;20202;-76
2022/05/27 10:42:21;;;;;;;1.37;0.90;;;;;;;;;;5095711;28;20194;-74
2022/05/27 10:44:58;;;;;;;1.27;0.83;;;;;;;;;;5121316;28;20215;-75
2022/05/27 10:47:34;;;;;;;1.00;1.00;;;;;;;;;;5120788;28;20228;-74
2022/05/27 10:50:07;;;;;;;2.97;1.00;;;;;;;;;;5121260;28;20651;-76
2022/05/27 10:53:08;;;;;;;6.20;0.90;;;;;;;;;;5115719;28;20213;-75
2022/05/27 10:55:44;;;;;;;1.17;0.87;;;;;;;;;;5004656;28;20699;-74
2022/05/27 11:04:29;;;;;;;0.70;0.57;;;;;;;;;;5100575;28;20349;-78
2022/05/27 11:07:04;;;;;;;2.37;1.30;;;;;;;;;;5090619;28;20229;-73
2022/05/27 11:09:36;;;;;;;1.03;0.80;;;;;;;;;;5097409;28;20557;-74
2022/05/27 11:12:07;;;;;;;2.73;0.97;;;;;;;;;;5100065;28;20197;-74
2022/05/27 11:17:36;;;;;;;1.03;0.90;;;;;;;;;;5099740;28;20237;-74
2022/05/27 11:20:25;;;;;;;1.70;0.57;;;;;;;;;;5100148;28;20589;-73
2022/05/27 11:22:58;;;;;;;1.90;1.13;;;;;;;;;;5099812;28;20590;-78
2022/05/27 11:25:37;;;;;;;1.07;0.80;;;;;;;;;;5100307;28;20248;-73
2022/05/27 11:28:25;;;;;;;1.13;0.90;;;;;;;;;;5099916;28;20572;-74
2022/05/27 11:30:59;;;;;;;1.80;0.80;;;;;;;;;;5099741;28;20242;-75
2022/05/27 11:33:34;;;;;;;2.77;1.27;;;;;;;;;;5099887;28;20216;-77
2022/05/27 11:36:11;;;;;;;1.53;1.30;;;;;;;;;;5099427;28;20323;-75
2022/05/27 11:38:50;;;;;;;3.60;1.17;;;;;;;;;;5099118;28;20265;-76
2022/05/27 11:41:20;;;;;;;1.97;1.20;;;;;;;;;;5105983;28;20234;-68
2022/05/27 11:43:49;;;;;;;3.37;1.60;;;;;;;;;;5119181;27;20232;-66
2022/05/27 11:46:34;;;;;;;2.20;1.00;;;;;;;;;;5120522;28;20221;-66
2022/05/27 11:49:09;;;;;;;0.90;0.90;;;;;;;;;;5118592;28;20234;-65
2022/05/27 11:51:45;;;;;;;2.23;0.90;;;;;;;;;;5098992;28;20235;-68
2022/05/27 11:54:34;;;;;;;1.20;1.10;;;;;;;;;;5095613;28;20204;-67
2022/05/27 11:57:07;;;;;;;3.13;1.20;;;;;;;;;;5094428;28;20241;-66
2022/05/27 11:59:37;;;;;;;1.20;0.90;;;;;;;;;;5098474;28;20264;-67
2022/05/27 12:02:15;;;;;;;1.10;1.10;;;;;;;;;;5098478;28;20281;-66
2022/05/27 12:04:45;;;;;;;1.70;1.20;;;;;;;;;;5098185;28;20220;-66
2022/05/27 12:07:17;;;;;;;2.37;1.90;;;;;;;;;;5098819;28;20723;-69
2022/05/27 12:09:48;;;;;;;1.33;1.13;;;;;;;;;;5095664;28;20251;-68
2022/05/27 12:12:19;;;;;;;1.80;1.07;;;;;;;;;;5086125;28;20364;-66
2022/05/27 12:14:51;;;;;;;2.60;1.50;;;;;;;;;;5098783;28;20228;-66
2022/05/27 12:17:22;;;;;;;1.23;0.87;;;;;;;;;;5098948;28;20222;-67
2022/05/27 12:19:56;;;;;;;1.40;1.30;;;;;;;;;;5098948;28;20218;-67
2022/05/27 12:22:27;;;;;;;2.83;1.27;;;;;;;;;;5099090;28;20241;-67
2022/05/27 12:24:57;;;;;;;0.73;0.73;;;;;;;;;;5098853;28;20226;-67
2022/05/27 12:27:25;;;;;;;3.40;0.90;;;;;;;;;;5098725;28;20255;-67
2022/05/27 12:29:53;;;;;;;1.30;0.70;;;;;;;;;;5099045;28;20201;-67
2022/05/27 12:32:25;;;;;;;1.57;0.80;;;;;;;;;;5098658;28;20238;-67
2022/05/27 12:34:53;;;;;;;1.47;1.40;;;;;;;;;;5098909;28;20199;-67
2022/05/27 12:37:25;;;;;;;2.40;1.20;;;;;;;;;;5097895;28;20537;-67
2022/05/27 12:40:08;;;;;;;1.47;1.37;;;;;;;;;;5097746;28;20204;-68
2022/05/27 12:42:39;;;;;;;0.90;0.90;;;;;;;;;;5098421;28;20241;-67
2022/05/27 12:45:22;;;;;;;1.67;0.77;;;;;;;;;;5098450;28;20252;-68
2022/05/27 12:47:53;;;;;;;1.93;1.27;;;;;;;;;;5098330;28;20241;-67
2022/05/27 12:50:25;;;;;;;0.67;0.67;;;;;;;;;;5097423;28;20207;-65
2022/05/27 12:52:55;;;;;;;0.93;0.90;;;;;;;;;;5111639;28;20258;-69
2022/05/27 13:00:55;;;;;;;0.90;0.90;;;;;;;;;;5118836;28;20629;-68
2022/05/27 13:01:22;;;;;;;1.10;1.10;;;;;;;;;;5082861;28;20283;-68
2022/05/27 13:03:53;;;;;;;1.53;0.90;;;;;;;;;;5084776;28;20228;-65
2022/05/27 13:06:39;;;;;;;0.93;0.93;;;;;;;;;;5108463;28;20600;-67
2022/05/27 13:09:09;;;;;;;1.20;1.10;;;;;;;;;;5118703;28;20215;-67
2022/05/27 13:11:44;;;;;;;0.80;0.80;;;;;;;;;;5118477;27;20246;-67
2022/05/27 13:14:20;;;;;;;3.53;0.97;;;;;;;;;;5118499;28;20213;-65
2022/05/27 13:17:08;;;;;;;1.87;1.00;;;;;;;;;;5103451;28;20262;-65
2022/05/27 13:19:41;;;;;;;1.17;1.07;;;;;;;;;;5094635;28;20226;-65
2022/05/27 13:22:12;;;;;;;1.17;1.07;;;;;;;;;;5097457;28;20212;-66
2022/05/27 13:24:42;;;;;;;1.80;1.67;;;;;;;;;;5097039;28;20229;-65
2022/05/27 13:27:16;;;;;;;0.83;0.70;;;;;;;;;;5093619;28;20562;-65
2022/05/27 13:29:50;;;;;;;2.07;0.87;;;;;;;;;;5097761;28;20208;-65
2022/05/27 13:32:21;;;;;;;1.30;1.10;;;;;;;;;;5097259;28;20211;-67
2022/05/27 13:34:53;;;;;;;4.30;0.83;;;;;;;;;;5097821;28;20202;-67
2022/05/27 13:37:23;;;;;;;1.17;0.70;;;;;;;;;;5097554;28;20227;-67
2022/05/27 13:39:53;;;;;;;0.90;0.80;;;;;;;;;;5097705;28;20224;-64
2022/05/27 13:42:27;;;;;;;0.80;0.80;;;;;;;;;;5097223;28;20618;-64
2022/05/27 13:45:00;;;;;;;1.10;1.10;;;;;;;;;;5097302;28;20225;-68
2022/05/27 13:47:51;;;;;;;0.70;0.70;;;;;;;;;;5095048;28;20300;-65
2022/05/27 13:50:29;;;;;;;1.83;0.80;;;;;;;;;;5096953;28;20234;-67
2022/05/27 13:52:57;;;;;;;2.47;1.00;;;;;;;;;;5090043;28;20231;-67
2022/05/27 13:55:26;;;;;;;1.40;1.30;;;;;;;;;;5085258;28;20692;-68
2022/05/27 13:57:55;;;;;;;1.27;0.83;;;;;;;;;;5078532;28;20631;-67
2022/05/27 14:00:25;;;;;;;1.23;0.90;;;;;;;;;;5079764;28;20230;-68
2022/05/27 14:02:53;;;;;;;1.37;0.80;;;;;;;;;;5086486;28;20662;-68
2022/05/27 14:05:23;;;;;;;1.93;1.13;;;;;;;;;;5097269;28;20226;-68
2022/05/27 14:07:54;;;;;;;1.70;0.97;;;;;;;;;;5097143;28;20233;-66
2022/05/27 14:10:24;;;;;;;0.93;0.80;;;;;;;;;;5097344;28;20229;-68
2022/05/27 14:12:53;;;;;;;2.13;0.90;;;;;;;;;;5097085;28;20236;-66
2022/05/27 14:15:24;;;;;;;1.37;0.90;;;;;;;;;;5096931;28;20687;-69
2022/05/27 14:17:53;;;;;;;0.77;0.77;;;;;;;;;;5097467;28;20198;-69
2022/05/27 14:20:26;;;;;;;2.60;0.73;;;;;;;;;;5096659;28;20207;-69
2022/05/27 14:22:56;;;;;;;0.80;0.80;;;;;;;;;;5094642;28;20201;-69
2022/05/27 14:25:25;;;;;;;1.07;0.90;;;;;;;;;;5097324;28;20607;-68
2022/05/27 14:27:55;;;;;;;1.87;0.90;;;;;;;;;;5094320;28;20207;-69
2022/05/27 14:30:24;;;;;;;0.93;0.80;;;;;;;;;;5099000;28;20249;-70
2022/05/27 14:32:52;;;;;;;0.80;0.80;;;;;;;;;;5094354;28;20609;-70
2022/05/27 14:35:23;;;;;;;0.60;0.60;;;;;;;;;;5113964;28;20211;-69
2022/05/27 14:38:09;;;;;;;1.13;1.03;;;;;;;;;;5105154;28;20303;-71
2022/05/27 14:40:42;;;;;;;1.07;1.03;;;;;;;;;;5094302;28;20202;-71
2022/05/27 14:43:21;;;;;;;0.80;0.80;;;;;;;;;;5096695;28;20646;-74
2022/05/27 14:45:51;;;;;;;1.20;1.10;;;;;;;;;;5096194;28;20225;-71
2022/05/27 14:48:20;;;;;;;1.00;0.90;;;;;;;;;;5095301;28;20695;-72
2022/05/27 14:50:48;;;;;;;1.40;1.23;;;;;;;;;;5099080;28;20233;-72
2022/05/27 14:53:17;;;;;;;5.37;1.80;;;;;;;;;;5093991;28;20247;-71
2022/05/27 14:55:47;;;;;;;1.70;1.17;;;;;;;;;;5096512;28;20247;-72
2022/05/27 14:58:16;;;;;;;2.97;0.97;;;;;;;;;;5097771;28;20200;-71
2022/05/27 15:00:46;;;;;;;1.30;1.17;;;;;;;;;;5097279;28;20231;-71
2022/05/27 15:03:28;;;;;;;1.07;1.07;;;;;;;;;;5096775;28;20199;-71
2022/05/27 15:06:07;;;;;;;1.63;0.90;;;;;;;;;;5090166;28;20231;-71
2022/05/27 15:08:35;;;;;;;1.80;0.80;;;;;;;;;;5096547;28;20207;-72
2022/05/27 15:11:07;;;;;;;1.80;0.73;;;;;;;;;;5096841;28;20200;-71
2022/05/27 15:13:46;;;;;;;0.83;0.80;;;;;;;;;;5097582;28;20221;-71
2022/05/27 15:16:15;;;;;;;1.33;1.23;;;;;;;;;;5098169;28;20215;-71
2022/05/27 15:18:45;;;;;;;0.90;0.90;;;;;;;;;;5102253;28;20206;-71
2022/05/27 15:21:15;;;;;;;2.80;0.90;;;;;;;;;;5100243;28;20650;-72
2022/05/27 15:23:48;;;;;;;2.20;0.80;;;;;;;;;;5104606;28;20284;-72
2022/05/27 15:34:44;;;;;;;2.40;1.40;;;;;;;;;;5113532;28;20240;-72
2022/05/27 15:37:12;;;;;;;1.33;1.17;;;;;;;;;;5101687;28;20222;-72
2022/05/27 15:39:40;;;;;;;0.90;0.90;;;;;;;;;;5099475;28;20231;-72
2022/05/27 15:42:11;;;;;;;1.87;0.97;;;;;;;;;;5097524;28;20544;-72
2022/05/27 15:44:39;;;;;;;1.33;0.90;;;;;;;;;;5100029;28;20200;-71
2022/05/27 15:47:07;;;;;;;1.13;0.80;;;;;;;;;;5098824;28;20256;-72
2022/05/27 15:49:36;;;;;;;1.23;0.50;;;;;;;;;;5100935;28;20204;-72
2022/05/27 15:52:04;;;;;;;4.43;1.00;;;;;;;;;;5099063;28;20226;-72